sensor_id;sensor_type;location;lat;lon;timestamp;P1;durP1;ratioP1;P2;durP2;ratioP2
39300;SDS011;25019;42.626;23.380;2023-05-10T00:01:47;13.80;;;10.10;;
39300;SDS011;25019;42.626;23.380;2023-05-10T00:04:13;13.93;;;9.93;;
39300;SDS011;25019;42.626;23.380;2023-05-10T00:06:39;15.20;;;10.53;;
39300;SDS011;25019;42.626;23.380;2023-05-10T00:09:05;13.03;;;9.70;;
39300;SDS011;25019;42.626;23.380;2023-05-10T00:11:30;12.40;;;10.07;;
39300;SDS011;25019;42.626;23.380;2023-05-10T00:13:56;14.43;;;10.60;;
39300;SDS011;25019;42.626;23.380;2023-05-10T00:16:22;13.77;;;10.53;;
39300;SDS011;25019;42.626;23.380;2023-05-10T00:18:47;14.07;;;10.60;;
39300;SDS011;25019;42.626;23.380;2023-05-10T00:21:13;11.93;;;9.20;;
39300;SDS011;25019;42.626;23.380;2023-05-10T00:23:39;12.00;;;9.23;;
39300;SDS011;25019;42.626;23.380;2023-05-10T00:26:05;14.03;;;9.80;;
39300;SDS011;25019;42.626;23.380;2023-05-10T00:28:30;12.53;;;9.87;;
39300;SDS011;25019;42.626;23.380;2023-05-10T00:30:56;11.40;;;9.93;;
39300;SDS011;25019;42.626;23.380;2023-05-10T00:33:22;12.37;;;9.80;;
39300;SDS011;25019;42.626;23.380;2023-05-10T00:35:48;12.70;;;9.47;;
39300;SDS011;25019;42.626;23.380;2023-05-10T00:38:14;12.40;;;9.13;;
39300;SDS011;25019;42.626;23.380;2023-05-10T00:40:40;12.03;;;9.17;;
39300;SDS011;25019;42.626;23.380;2023-05-10T00:43:12;10.67;;;9.03;;
39300;SDS011;25019;42.626;23.380;2023-05-10T00:45:38;13.07;;;9.63;;
39300;SDS011;25019;42.626;23.380;2023-05-10T00:48:05;13.80;;;10.73;;
39300;SDS011;25019;42.626;23.380;2023-05-10T00:50:31;13.17;;;10.83;;
39300;SDS011;25019;42.626;23.380;2023-05-10T00:53:01;14.23;;;11.07;;
39300;SDS011;25019;42.626;23.380;2023-05-10T00:55:28;12.83;;;10.90;;
39300;SDS011;25019;42.626;23.380;2023-05-10T00:57:53;14.17;;;10.60;;
39300;SDS011;25019;42.626;23.380;2023-05-10T01:00:19;14.53;;;10.97;;
39300;SDS011;25019;42.626;23.380;2023-05-10T01:02:45;12.80;;;10.07;;
39300;SDS011;25019;42.626;23.380;2023-05-10T01:05:12;15.77;;;10.27;;
39300;SDS011;25019;42.626;23.380;2023-05-10T01:07:38;14.27;;;10.03;;
39300;SDS011;25019;42.626;23.380;2023-05-10T01:10:07;15.07;;;10.80;;
39300;SDS011;25019;42.626;23.380;2023-05-10T01:12:35;12.67;;;10.50;;
39300;SDS011;25019;42.626;23.380;2023-05-10T01:15:03;12.07;;;9.77;;
39300;SDS011;25019;42.626;23.380;2023-05-10T01:17:32;12.60;;;10.17;;
39300;SDS011;25019;42.626;23.380;2023-05-10T01:19:58;13.90;;;10.00;;
39300;SDS011;25019;42.626;23.380;2023-05-10T01:33:51;11.83;;;9.13;;
39300;SDS011;25019;42.626;23.380;2023-05-10T01:39:02;9.47;;;7.57;;
39300;SDS011;25019;42.626;23.380;2023-05-10T01:42:03;10.57;;;7.20;;
39300;SDS011;25019;42.626;23.380;2023-05-10T01:47:37;9.60;;;7.30;;
39300;SDS011;25019;42.626;23.380;2023-05-10T01:50:06;8.20;;;7.27;;
39300;SDS011;25019;42.626;23.380;2023-05-10T01:52:51;11.23;;;6.23;;
39300;SDS011;25019;42.626;23.380;2023-05-10T01:55:20;7.93;;;7.07;;
39300;SDS011;25019;42.626;23.380;2023-05-10T01:57:50;8.17;;;7.37;;
39300;SDS011;25019;42.626;23.380;2023-05-10T02:00:21;8.40;;;7.50;;
39300;SDS011;25019;42.626;23.380;2023-05-10T02:02:50;7.60;;;6.63;;
39300;SDS011;25019;42.626;23.380;2023-05-10T02:05:18;9.27;;;7.30;;
39300;SDS011;25019;42.626;23.380;2023-05-10T02:07:46;9.53;;;7.67;;
39300;SDS011;25019;42.626;23.380;2023-05-10T02:10:12;7.17;;;6.30;;
39300;SDS011;25019;42.626;23.380;2023-05-10T02:12:41;8.63;;;6.47;;
39300;SDS011;25019;42.626;23.380;2023-05-10T02:15:08;6.30;;;5.70;;
39300;SDS011;25019;42.626;23.380;2023-05-10T02:17:37;7.40;;;6.23;;
39300;SDS011;25019;42.626;23.380;2023-05-10T02:20:04;8.50;;;6.40;;
39300;SDS011;25019;42.626;23.380;2023-05-10T02:22:33;7.50;;;5.97;;
39300;SDS011;25019;42.626;23.380;2023-05-10T02:25:00;7.40;;;5.83;;
39300;SDS011;25019;42.626;23.380;2023-05-10T02:27:28;7.00;;;6.03;;
39300;SDS011;25019;42.626;23.380;2023-05-10T02:29:55;7.00;;;6.10;;
39300;SDS011;25019;42.626;23.380;2023-05-10T02:32:24;6.77;;;6.07;;
39300;SDS011;25019;42.626;23.380;2023-05-10T02:34:51;6.10;;;5.43;;
39300;SDS011;25019;42.626;23.380;2023-05-10T02:37:19;6.63;;;5.10;;
39300;SDS011;25019;42.626;23.380;2023-05-10T02:39:49;7.50;;;5.27;;
39300;SDS011;25019;42.626;23.380;2023-05-10T02:42:16;8.23;;;5.40;;
39300;SDS011;25019;42.626;23.380;2023-05-10T02:44:48;7.57;;;5.43;;
39300;SDS011;25019;42.626;23.380;2023-05-10T02:47:16;6.80;;;5.07;;
39300;SDS011;25019;42.626;23.380;2023-05-10T02:49:43;8.60;;;5.50;;
39300;SDS011;25019;42.626;23.380;2023-05-10T02:52:08;6.80;;;5.27;;
39300;SDS011;25019;42.626;23.380;2023-05-10T02:54:43;8.77;;;6.10;;
39300;SDS011;25019;42.626;23.380;2023-05-10T02:57:11;7.57;;;6.40;;
39300;SDS011;25019;42.626;23.380;2023-05-10T02:59:44;8.17;;;5.90;;
39300;SDS011;25019;42.626;23.380;2023-05-10T03:02:14;7.63;;;6.17;;
39300;SDS011;25019;42.626;23.380;2023-05-10T03:04:40;7.77;;;5.93;;
39300;SDS011;25019;42.626;23.380;2023-05-10T03:07:05;6.60;;;5.90;;
39300;SDS011;25019;42.626;23.380;2023-05-10T03:09:32;6.90;;;5.50;;
39300;SDS011;25019;42.626;23.380;2023-05-10T03:12:07;7.70;;;6.20;;
39300;SDS011;25019;42.626;23.380;2023-05-10T03:14:42;8.60;;;6.67;;
39300;SDS011;25019;42.626;23.380;2023-05-10T03:20:10;8.53;;;6.30;;
39300;SDS011;25019;42.626;23.380;2023-05-10T03:22:40;9.40;;;6.30;;
39300;SDS011;25019;42.626;23.380;2023-05-10T03:25:10;8.97;;;5.93;;
39300;SDS011;25019;42.626;23.380;2023-05-10T03:27:39;8.00;;;6.53;;
39300;SDS011;25019;42.626;23.380;2023-05-10T03:30:12;8.97;;;6.50;;
39300;SDS011;25019;42.626;23.380;2023-05-10T03:32:40;8.23;;;6.17;;
39300;SDS011;25019;42.626;23.380;2023-05-10T03:35:07;8.07;;;6.20;;
39300;SDS011;25019;42.626;23.380;2023-05-10T03:37:35;8.00;;;7.17;;
39300;SDS011;25019;42.626;23.380;2023-05-10T03:40:01;7.30;;;5.87;;
39300;SDS011;25019;42.626;23.380;2023-05-10T03:42:29;9.43;;;6.17;;
39300;SDS011;25019;42.626;23.380;2023-05-10T03:44:55;7.63;;;5.67;;
39300;SDS011;25019;42.626;23.380;2023-05-10T03:47:21;6.53;;;5.67;;
39300;SDS011;25019;42.626;23.380;2023-05-10T03:49:47;6.63;;;5.33;;
39300;SDS011;25019;42.626;23.380;2023-05-10T03:52:18;6.90;;;5.63;;
39300;SDS011;25019;42.626;23.380;2023-05-10T03:54:44;5.87;;;5.27;;
39300;SDS011;25019;42.626;23.380;2023-05-10T03:57:13;6.33;;;5.30;;
39300;SDS011;25019;42.626;23.380;2023-05-10T03:59:44;6.20;;;5.57;;
39300;SDS011;25019;42.626;23.380;2023-05-10T04:02:53;8.70;;;5.97;;
39300;SDS011;25019;42.626;23.380;2023-05-10T04:05:22;6.40;;;5.20;;
39300;SDS011;25019;42.626;23.380;2023-05-10T04:11:45;6.23;;;5.30;;
39300;SDS011;25019;42.626;23.380;2023-05-10T04:15:25;7.03;;;5.43;;
39300;SDS011;25019;42.626;23.380;2023-05-10T04:17:50;5.93;;;5.07;;
39300;SDS011;25019;42.626;23.380;2023-05-10T04:20:16;7.60;;;5.30;;
39300;SDS011;25019;42.626;23.380;2023-05-10T04:22:42;6.30;;;4.70;;
39300;SDS011;25019;42.626;23.380;2023-05-10T04:25:08;7.13;;;5.17;;
39300;SDS011;25019;42.626;23.380;2023-05-10T04:27:34;6.00;;;5.23;;
39300;SDS011;25019;42.626;23.380;2023-05-10T04:30:00;6.67;;;5.87;;
39300;SDS011;25019;42.626;23.380;2023-05-10T04:32:25;9.10;;;5.57;;
39300;SDS011;25019;42.626;23.380;2023-05-10T04:34:51;5.93;;;5.33;;
39300;SDS011;25019;42.626;23.380;2023-05-10T04:37:17;6.20;;;5.17;;
39300;SDS011;25019;42.626;23.380;2023-05-10T04:39:44;9.83;;;5.17;;
39300;SDS011;25019;42.626;23.380;2023-05-10T04:42:10;7.33;;;6.27;;
39300;SDS011;25019;42.626;23.380;2023-05-10T04:44:36;7.33;;;5.43;;
39300;SDS011;25019;42.626;23.380;2023-05-10T04:47:02;5.30;;;4.77;;
39300;SDS011;25019;42.626;23.380;2023-05-10T04:49:28;5.97;;;5.30;;
39300;SDS011;25019;42.626;23.380;2023-05-10T04:51:54;7.37;;;5.90;;
39300;SDS011;25019;42.626;23.380;2023-05-10T04:54:20;7.63;;;5.57;;
39300;SDS011;25019;42.626;23.380;2023-05-10T04:56:46;6.03;;;5.27;;
39300;SDS011;25019;42.626;23.380;2023-05-10T04:59:12;7.00;;;5.50;;
39300;SDS011;25019;42.626;23.380;2023-05-10T05:01:38;6.53;;;5.30;;
39300;SDS011;25019;42.626;23.380;2023-05-10T05:04:04;7.27;;;5.30;;
39300;SDS011;25019;42.626;23.380;2023-05-10T05:06:30;6.17;;;5.57;;
39300;SDS011;25019;42.626;23.380;2023-05-10T05:08:56;7.00;;;5.20;;
39300;SDS011;25019;42.626;23.380;2023-05-10T05:11:21;6.43;;;5.27;;
39300;SDS011;25019;42.626;23.380;2023-05-10T05:13:47;8.00;;;5.60;;
39300;SDS011;25019;42.626;23.380;2023-05-10T05:16:13;6.70;;;5.53;;
39300;SDS011;25019;42.626;23.380;2023-05-10T05:18:39;6.67;;;5.03;;
39300;SDS011;25019;42.626;23.380;2023-05-10T05:21:14;5.87;;;5.33;;
39300;SDS011;25019;42.626;23.380;2023-05-10T05:23:41;8.93;;;5.23;;
39300;SDS011;25019;42.626;23.380;2023-05-10T05:26:06;5.97;;;5.37;;
39300;SDS011;25019;42.626;23.380;2023-05-10T05:28:32;6.27;;;5.57;;
39300;SDS011;25019;42.626;23.380;2023-05-10T05:31:02;5.93;;;5.33;;
39300;SDS011;25019;42.626;23.380;2023-05-10T05:33:28;7.67;;;5.50;;
39300;SDS011;25019;42.626;23.380;2023-05-10T05:35:54;7.00;;;5.50;;
39300;SDS011;25019;42.626;23.380;2023-05-10T05:38:19;6.67;;;6.00;;
39300;SDS011;25019;42.626;23.380;2023-05-10T05:40:45;6.87;;;5.93;;
39300;SDS011;25019;42.626;23.380;2023-05-10T05:43:11;8.53;;;6.13;;
39300;SDS011;25019;42.626;23.380;2023-05-10T05:45:36;8.30;;;6.07;;
39300;SDS011;25019;42.626;23.380;2023-05-10T05:48:02;8.33;;;6.50;;
39300;SDS011;25019;42.626;23.380;2023-05-10T05:50:28;8.07;;;6.57;;
39300;SDS011;25019;42.626;23.380;2023-05-10T05:52:53;8.07;;;6.40;;
39300;SDS011;25019;42.626;23.380;2023-05-10T05:55:19;7.83;;;6.57;;
39300;SDS011;25019;42.626;23.380;2023-05-10T05:57:45;10.10;;;6.47;;
39300;SDS011;25019;42.626;23.380;2023-05-10T06:00:10;8.80;;;6.50;;
39300;SDS011;25019;42.626;23.380;2023-05-10T06:02:39;8.57;;;6.90;;
39300;SDS011;25019;42.626;23.380;2023-05-10T06:05:05;9.20;;;7.23;;
39300;SDS011;25019;42.626;23.380;2023-05-10T06:07:31;9.37;;;7.93;;
39300;SDS011;25019;42.626;23.380;2023-05-10T06:09:57;9.63;;;7.23;;
39300;SDS011;25019;42.626;23.380;2023-05-10T06:12:22;9.43;;;7.60;;
39300;SDS011;25019;42.626;23.380;2023-05-10T06:14:48;10.10;;;8.30;;
39300;SDS011;25019;42.626;23.380;2023-05-10T06:17:14;11.70;;;8.87;;
39300;SDS011;25019;42.626;23.380;2023-05-10T06:19:39;9.93;;;7.87;;
39300;SDS011;25019;42.626;23.380;2023-05-10T06:22:05;9.53;;;8.03;;
39300;SDS011;25019;42.626;23.380;2023-05-10T06:24:31;10.77;;;8.20;;
39300;SDS011;25019;42.626;23.380;2023-05-10T06:26:56;10.13;;;7.93;;
39300;SDS011;25019;42.626;23.380;2023-05-10T06:29:25;11.57;;;8.13;;
39300;SDS011;25019;42.626;23.380;2023-05-10T06:31:51;8.90;;;8.00;;
39300;SDS011;25019;42.626;23.380;2023-05-10T06:34:16;12.63;;;8.37;;
39300;SDS011;25019;42.626;23.380;2023-05-10T06:36:42;11.10;;;8.50;;
39300;SDS011;25019;42.626;23.380;2023-05-10T06:39:08;12.27;;;8.10;;
39300;SDS011;25019;42.626;23.380;2023-05-10T06:41:34;9.90;;;8.07;;
39300;SDS011;25019;42.626;23.380;2023-05-10T06:43:59;11.33;;;8.40;;
39300;SDS011;25019;42.626;23.380;2023-05-10T06:46:25;11.93;;;8.30;;
39300;SDS011;25019;42.626;23.380;2023-05-10T06:48:51;11.77;;;8.57;;
39300;SDS011;25019;42.626;23.380;2023-05-10T06:51:16;14.77;;;9.00;;
39300;SDS011;25019;42.626;23.380;2023-05-10T06:53:43;10.63;;;8.63;;
39300;SDS011;25019;42.626;23.380;2023-05-10T06:56:09;10.17;;;7.87;;
39300;SDS011;25019;42.626;23.380;2023-05-10T06:58:34;12.20;;;9.80;;
39300;SDS011;25019;42.626;23.380;2023-05-10T07:01:03;11.50;;;8.60;;
39300;SDS011;25019;42.626;23.380;2023-05-10T07:03:30;10.73;;;8.13;;
39300;SDS011;25019;42.626;23.380;2023-05-10T07:06:02;11.20;;;8.33;;
39300;SDS011;25019;42.626;23.380;2023-05-10T07:08:30;9.80;;;8.33;;
39300;SDS011;25019;42.626;23.380;2023-05-10T07:11:03;10.33;;;8.40;;
39300;SDS011;25019;42.626;23.380;2023-05-10T07:13:32;8.90;;;7.90;;
39300;SDS011;25019;42.626;23.380;2023-05-10T07:15:59;10.47;;;8.13;;
39300;SDS011;25019;42.626;23.380;2023-05-10T07:18:27;9.70;;;8.30;;
39300;SDS011;25019;42.626;23.380;2023-05-10T07:20:56;9.47;;;7.63;;
39300;SDS011;25019;42.626;23.380;2023-05-10T07:23:22;13.27;;;8.23;;
39300;SDS011;25019;42.626;23.380;2023-05-10T07:25:48;11.53;;;8.30;;
39300;SDS011;25019;42.626;23.380;2023-05-10T07:28:15;9.87;;;8.13;;
39300;SDS011;25019;42.626;23.380;2023-05-10T07:30:41;9.57;;;7.30;;
39300;SDS011;25019;42.626;23.380;2023-05-10T07:33:08;10.57;;;8.00;;
39300;SDS011;25019;42.626;23.380;2023-05-10T07:35:35;11.10;;;8.13;;
39300;SDS011;25019;42.626;23.380;2023-05-10T07:38:01;9.47;;;8.27;;
39300;SDS011;25019;42.626;23.380;2023-05-10T07:40:27;10.47;;;8.73;;
39300;SDS011;25019;42.626;23.380;2023-05-10T07:42:56;11.03;;;9.23;;
39300;SDS011;25019;42.626;23.380;2023-05-10T07:45:22;11.30;;;8.53;;
39300;SDS011;25019;42.626;23.380;2023-05-10T07:47:54;11.50;;;9.10;;
39300;SDS011;25019;42.626;23.380;2023-05-10T07:50:20;12.50;;;8.37;;
39300;SDS011;25019;42.626;23.380;2023-05-10T07:52:46;9.97;;;8.63;;
39300;SDS011;25019;42.626;23.380;2023-05-10T07:55:13;12.87;;;9.70;;
39300;SDS011;25019;42.626;23.380;2023-05-10T07:57:39;11.67;;;8.57;;
39300;SDS011;25019;42.626;23.380;2023-05-10T08:00:05;11.47;;;9.10;;
39300;SDS011;25019;42.626;23.380;2023-05-10T08:02:38;11.83;;;8.80;;
39300;SDS011;25019;42.626;23.380;2023-05-10T08:05:04;10.13;;;8.50;;
39300;SDS011;25019;42.626;23.380;2023-05-10T08:07:30;10.93;;;9.33;;
39300;SDS011;25019;42.626;23.380;2023-05-10T08:09:56;9.47;;;7.87;;
39300;SDS011;25019;42.626;23.380;2023-05-10T08:12:22;10.07;;;8.93;;
39300;SDS011;25019;42.626;23.380;2023-05-10T08:14:48;11.17;;;8.63;;
39300;SDS011;25019;42.626;23.380;2023-05-10T08:17:13;11.10;;;8.90;;
39300;SDS011;25019;42.626;23.380;2023-05-10T08:19:39;12.50;;;9.50;;
39300;SDS011;25019;42.626;23.380;2023-05-10T08:22:05;9.63;;;8.50;;
39300;SDS011;25019;42.626;23.380;2023-05-10T08:24:31;15.10;;;8.23;;
39300;SDS011;25019;42.626;23.380;2023-05-10T08:26:57;10.57;;;8.83;;
39300;SDS011;25019;42.626;23.380;2023-05-10T08:29:23;11.47;;;7.77;;
39300;SDS011;25019;42.626;23.380;2023-05-10T08:31:48;11.20;;;8.37;;
39300;SDS011;25019;42.626;23.380;2023-05-10T08:34:14;9.80;;;8.20;;
39300;SDS011;25019;42.626;23.380;2023-05-10T08:36:40;9.67;;;8.03;;
39300;SDS011;25019;42.626;23.380;2023-05-10T08:39:05;9.83;;;8.03;;
39300;SDS011;25019;42.626;23.380;2023-05-10T08:41:32;9.90;;;8.33;;
39300;SDS011;25019;42.626;23.380;2023-05-10T08:44:04;11.30;;;7.73;;
39300;SDS011;25019;42.626;23.380;2023-05-10T08:46:30;9.50;;;7.97;;
39300;SDS011;25019;42.626;23.380;2023-05-10T08:48:59;15.33;;;8.20;;
39300;SDS011;25019;42.626;23.380;2023-05-10T08:51:29;8.93;;;8.03;;
39300;SDS011;25019;42.626;23.380;2023-05-10T08:54:00;13.47;;;9.73;;
39300;SDS011;25019;42.626;23.380;2023-05-10T08:56:26;9.20;;;8.03;;
39300;SDS011;25019;42.626;23.380;2023-05-10T08:58:51;13.20;;;8.83;;
39300;SDS011;25019;42.626;23.380;2023-05-10T09:01:18;9.20;;;8.27;;
39300;SDS011;25019;42.626;23.380;2023-05-10T09:03:45;11.07;;;9.23;;
39300;SDS011;25019;42.626;23.380;2023-05-10T09:06:12;11.10;;;9.07;;
39300;SDS011;25019;42.626;23.380;2023-05-10T09:08:38;10.33;;;8.97;;
39300;SDS011;25019;42.626;23.380;2023-05-10T09:11:05;13.90;;;10.00;;
39300;SDS011;25019;42.626;23.380;2023-05-10T09:13:31;11.13;;;9.77;;
39300;SDS011;25019;42.626;23.380;2023-05-10T09:15:57;11.37;;;9.97;;
39300;SDS011;25019;42.626;23.380;2023-05-10T09:18:23;11.57;;;10.00;;
39300;SDS011;25019;42.626;23.380;2023-05-10T09:20:49;12.80;;;10.23;;
39300;SDS011;25019;42.626;23.380;2023-05-10T09:23:14;15.60;;;10.33;;
39300;SDS011;25019;42.626;23.380;2023-05-10T09:25:43;10.57;;;9.43;;
39300;SDS011;25019;42.626;23.380;2023-05-10T09:28:09;13.93;;;10.13;;
39300;SDS011;25019;42.626;23.380;2023-05-10T09:30:35;11.47;;;10.27;;
39300;SDS011;25019;42.626;23.380;2023-05-10T09:33:02;12.73;;;9.73;;
39300;SDS011;25019;42.626;23.380;2023-05-10T09:35:28;10.10;;;9.03;;
39300;SDS011;25019;42.626;23.380;2023-05-10T09:37:57;11.03;;;9.50;;
39300;SDS011;25019;42.626;23.380;2023-05-10T09:40:26;10.73;;;8.97;;
39300;SDS011;25019;42.626;23.380;2023-05-10T09:42:54;11.10;;;9.50;;
39300;SDS011;25019;42.626;23.380;2023-05-10T09:45:28;9.57;;;8.60;;
39300;SDS011;25019;42.626;23.380;2023-05-10T09:47:55;9.73;;;8.73;;
39300;SDS011;25019;42.626;23.380;2023-05-10T09:50:21;11.03;;;9.13;;
39300;SDS011;25019;42.626;23.380;2023-05-10T09:52:54;9.63;;;8.03;;
39300;SDS011;25019;42.626;23.380;2023-05-10T09:55:25;11.50;;;9.00;;
39300;SDS011;25019;42.626;23.380;2023-05-10T09:58:03;10.60;;;9.50;;
39300;SDS011;25019;42.626;23.380;2023-05-10T10:00:34;8.20;;;7.40;;
39300;SDS011;25019;42.626;23.380;2023-05-10T10:03:01;9.73;;;8.10;;
39300;SDS011;25019;42.626;23.380;2023-05-10T10:05:28;9.33;;;8.20;;
39300;SDS011;25019;42.626;23.380;2023-05-10T10:07:59;8.60;;;7.70;;
39300;SDS011;25019;42.626;23.380;2023-05-10T10:10:26;8.83;;;8.00;;
39300;SDS011;25019;42.626;23.380;2023-05-10T10:12:53;10.40;;;8.53;;
39300;SDS011;25019;42.626;23.380;2023-05-10T10:15:23;9.33;;;6.97;;
39300;SDS011;25019;42.626;23.380;2023-05-10T10:17:50;8.63;;;7.83;;
39300;SDS011;25019;42.626;23.380;2023-05-10T10:20:16;8.33;;;7.20;;
39300;SDS011;25019;42.626;23.380;2023-05-10T10:22:43;11.27;;;7.20;;
39300;SDS011;25019;42.626;23.380;2023-05-10T10:25:15;9.27;;;6.43;;
39300;SDS011;25019;42.626;23.380;2023-05-10T10:35:35;7.30;;;6.47;;
39300;SDS011;25019;42.626;23.380;2023-05-10T10:38:01;7.87;;;6.77;;
39300;SDS011;25019;42.626;23.380;2023-05-10T10:40:27;8.73;;;6.63;;
39300;SDS011;25019;42.626;23.380;2023-05-10T10:42:55;9.63;;;6.83;;
39300;SDS011;25019;42.626;23.380;2023-05-10T10:45:21;7.27;;;6.07;;
39300;SDS011;25019;42.626;23.380;2023-05-10T10:47:48;7.70;;;6.27;;
39300;SDS011;25019;42.626;23.380;2023-05-10T10:50:15;7.00;;;5.83;;
39300;SDS011;25019;42.626;23.380;2023-05-10T10:52:42;7.30;;;6.23;;
39300;SDS011;25019;42.626;23.380;2023-05-10T10:55:16;10.90;;;7.00;;
39300;SDS011;25019;42.626;23.380;2023-05-10T10:57:47;7.67;;;6.20;;
39300;SDS011;25019;42.626;23.380;2023-05-10T11:00:29;6.57;;;5.97;;
39300;SDS011;25019;42.626;23.380;2023-05-10T11:03:08;7.73;;;6.87;;
39300;SDS011;25019;42.626;23.380;2023-05-10T11:05:59;9.07;;;6.20;;
39300;SDS011;25019;42.626;23.380;2023-05-10T11:08:39;8.37;;;6.47;;
39300;SDS011;25019;42.626;23.380;2023-05-10T11:11:09;7.97;;;6.07;;
39300;SDS011;25019;42.626;23.380;2023-05-10T11:13:39;7.27;;;6.30;;
39300;SDS011;25019;42.626;23.380;2023-05-10T11:21:26;11.50;;;7.33;;
39300;SDS011;25019;42.626;23.380;2023-05-10T11:23:52;9.33;;;7.13;;
39300;SDS011;25019;42.626;23.380;2023-05-10T11:26:22;11.77;;;7.40;;
39300;SDS011;25019;42.626;23.380;2023-05-10T11:28:51;8.03;;;7.13;;
39300;SDS011;25019;42.626;23.380;2023-05-10T11:31:24;6.40;;;5.80;;
39300;SDS011;25019;42.626;23.380;2023-05-10T11:33:55;8.30;;;6.07;;
39300;SDS011;25019;42.626;23.380;2023-05-10T11:36:29;6.77;;;6.07;;
39300;SDS011;25019;42.626;23.380;2023-05-10T11:38:58;7.67;;;6.20;;
39300;SDS011;25019;42.626;23.380;2023-05-10T11:41:25;7.30;;;6.40;;
39300;SDS011;25019;42.626;23.380;2023-05-10T11:43:53;9.00;;;6.70;;
39300;SDS011;25019;42.626;23.380;2023-05-10T11:46:20;9.03;;;6.63;;
39300;SDS011;25019;42.626;23.380;2023-05-10T11:48:49;13.30;;;7.70;;
39300;SDS011;25019;42.626;23.380;2023-05-10T11:51:20;9.83;;;6.90;;
39300;SDS011;25019;42.626;23.380;2023-05-10T11:53:50;12.07;;;7.20;;
39300;SDS011;25019;42.626;23.380;2023-05-10T11:56:20;9.23;;;6.77;;
39300;SDS011;25019;42.626;23.380;2023-05-10T11:58:52;8.33;;;7.33;;
39300;SDS011;25019;42.626;23.380;2023-05-10T12:01:20;9.47;;;7.10;;
39300;SDS011;25019;42.626;23.380;2023-05-10T12:03:46;9.17;;;7.83;;
39300;SDS011;25019;42.626;23.380;2023-05-10T12:06:12;9.50;;;8.00;;
39300;SDS011;25019;42.626;23.380;2023-05-10T12:08:43;10.00;;;7.77;;
39300;SDS011;25019;42.626;23.380;2023-05-10T12:11:10;7.70;;;6.97;;
39300;SDS011;25019;42.626;23.380;2023-05-10T12:13:39;8.90;;;7.17;;
39300;SDS011;25019;42.626;23.380;2023-05-10T12:16:12;9.37;;;7.37;;
39300;SDS011;25019;42.626;23.380;2023-05-10T12:18:42;7.97;;;7.17;;
39300;SDS011;25019;42.626;23.380;2023-05-10T12:21:11;8.40;;;7.47;;
39300;SDS011;25019;42.626;23.380;2023-05-10T12:23:38;8.97;;;7.37;;
39300;SDS011;25019;42.626;23.380;2023-05-10T12:26:04;9.53;;;7.93;;
39300;SDS011;25019;42.626;23.380;2023-05-10T12:28:31;8.20;;;7.17;;
39300;SDS011;25019;42.626;23.380;2023-05-10T12:30:58;10.60;;;8.00;;
39300;SDS011;25019;42.626;23.380;2023-05-10T12:33:25;10.17;;;7.07;;
39300;SDS011;25019;42.626;23.380;2023-05-10T12:35:51;11.50;;;6.87;;
39300;SDS011;25019;42.626;23.380;2023-05-10T12:40:50;8.40;;;6.60;;
39300;SDS011;25019;42.626;23.380;2023-05-10T12:43:16;8.83;;;6.20;;
39300;SDS011;25019;42.626;23.380;2023-05-10T12:45:41;9.13;;;7.00;;
39300;SDS011;25019;42.626;23.380;2023-05-10T12:48:07;7.10;;;6.40;;
39300;SDS011;25019;42.626;23.380;2023-05-10T12:50:32;8.77;;;6.93;;
39300;SDS011;25019;42.626;23.380;2023-05-10T12:53:00;8.73;;;7.00;;
39300;SDS011;25019;42.626;23.380;2023-05-10T12:55:26;11.23;;;7.27;;
39300;SDS011;25019;42.626;23.380;2023-05-10T12:57:52;8.87;;;7.10;;
39300;SDS011;25019;42.626;23.380;2023-05-10T13:00:17;7.70;;;6.50;;
39300;SDS011;25019;42.626;23.380;2023-05-10T13:02:44;7.47;;;6.23;;
39300;SDS011;25019;42.626;23.380;2023-05-10T13:05:09;8.83;;;5.93;;
39300;SDS011;25019;42.626;23.380;2023-05-10T13:07:36;7.03;;;6.30;;
39300;SDS011;25019;42.626;23.380;2023-05-10T13:10:02;8.13;;;6.60;;
39300;SDS011;25019;42.626;23.380;2023-05-10T13:12:27;10.27;;;6.50;;
39300;SDS011;25019;42.626;23.380;2023-05-10T13:14:54;7.93;;;6.50;;
39300;SDS011;25019;42.626;23.380;2023-05-10T13:17:20;8.57;;;6.53;;
39300;SDS011;25019;42.626;23.380;2023-05-10T13:19:45;10.43;;;6.17;;
39300;SDS011;25019;42.626;23.380;2023-05-10T13:22:11;10.30;;;6.17;;
39300;SDS011;25019;42.626;23.380;2023-05-10T13:24:37;6.73;;;6.03;;
39300;SDS011;25019;42.626;23.380;2023-05-10T13:27:02;9.83;;;6.20;;
39300;SDS011;25019;42.626;23.380;2023-05-10T13:29:28;7.40;;;5.93;;
39300;SDS011;25019;42.626;23.380;2023-05-10T13:31:54;8.50;;;6.10;;
39300;SDS011;25019;42.626;23.380;2023-05-10T13:34:19;7.00;;;5.53;;
39300;SDS011;25019;42.626;23.380;2023-05-10T13:36:48;7.33;;;5.73;;
39300;SDS011;25019;42.626;23.380;2023-05-10T13:39:14;7.67;;;6.00;;
39300;SDS011;25019;42.626;23.380;2023-05-10T13:41:39;6.90;;;6.20;;
39300;SDS011;25019;42.626;23.380;2023-05-10T13:44:05;10.03;;;6.50;;
39300;SDS011;25019;42.626;23.380;2023-05-10T13:46:31;9.23;;;7.00;;
39300;SDS011;25019;42.626;23.380;2023-05-10T13:48:57;7.97;;;6.47;;
39300;SDS011;25019;42.626;23.380;2023-05-10T13:51:22;9.20;;;6.57;;
39300;SDS011;25019;42.626;23.380;2023-05-10T13:53:48;7.87;;;7.10;;
39300;SDS011;25019;42.626;23.380;2023-05-10T13:56:14;8.40;;;6.87;;
39300;SDS011;25019;42.626;23.380;2023-05-10T13:58:40;10.20;;;7.03;;
39300;SDS011;25019;42.626;23.380;2023-05-10T14:01:06;8.73;;;6.77;;
39300;SDS011;25019;42.626;23.380;2023-05-10T14:03:32;7.63;;;5.87;;
39300;SDS011;25019;42.626;23.380;2023-05-10T14:05:58;10.10;;;6.20;;
39300;SDS011;25019;42.626;23.380;2023-05-10T14:08:23;9.70;;;6.83;;
39300;SDS011;25019;42.626;23.380;2023-05-10T14:10:49;9.27;;;6.40;;
39300;SDS011;25019;42.626;23.380;2023-05-10T14:13:15;10.63;;;6.50;;
39300;SDS011;25019;42.626;23.380;2023-05-10T14:15:41;10.10;;;6.37;;
39300;SDS011;25019;42.626;23.380;2023-05-10T14:18:07;9.60;;;6.33;;
39300;SDS011;25019;42.626;23.380;2023-05-10T14:20:35;8.57;;;6.47;;
39300;SDS011;25019;42.626;23.380;2023-05-10T14:23:01;9.10;;;6.40;;
39300;SDS011;25019;42.626;23.380;2023-05-10T14:25:27;10.47;;;6.73;;
39300;SDS011;25019;42.626;23.380;2023-05-10T14:27:53;8.47;;;6.47;;
39300;SDS011;25019;42.626;23.380;2023-05-10T14:30:21;7.53;;;6.53;;
39300;SDS011;25019;42.626;23.380;2023-05-10T14:32:47;7.43;;;6.17;;
39300;SDS011;25019;42.626;23.380;2023-05-10T14:35:12;8.13;;;6.50;;
39300;SDS011;25019;42.626;23.380;2023-05-10T14:37:38;7.93;;;6.60;;
39300;SDS011;25019;42.626;23.380;2023-05-10T14:40:04;10.83;;;6.30;;
39300;SDS011;25019;42.626;23.380;2023-05-10T14:42:31;7.63;;;6.63;;
39300;SDS011;25019;42.626;23.380;2023-05-10T14:44:57;10.57;;;6.70;;
39300;SDS011;25019;42.626;23.380;2023-05-10T14:47:22;9.80;;;7.07;;
39300;SDS011;25019;42.626;23.380;2023-05-10T14:49:48;8.50;;;6.57;;
39300;SDS011;25019;42.626;23.380;2023-05-10T14:52:14;9.83;;;7.10;;
39300;SDS011;25019;42.626;23.380;2023-05-10T14:54:40;7.93;;;6.87;;
39300;SDS011;25019;42.626;23.380;2023-05-10T14:57:06;11.20;;;6.17;;
39300;SDS011;25019;42.626;23.380;2023-05-10T14:59:32;7.10;;;6.30;;
39300;SDS011;25019;42.626;23.380;2023-05-10T15:01:57;8.67;;;6.37;;
39300;SDS011;25019;42.626;23.380;2023-05-10T15:04:24;7.90;;;6.00;;
39300;SDS011;25019;42.626;23.380;2023-05-10T15:06:49;8.57;;;6.37;;
39300;SDS011;25019;42.626;23.380;2023-05-10T15:09:15;6.30;;;5.70;;
39300;SDS011;25019;42.626;23.380;2023-05-10T15:11:41;8.90;;;5.97;;